Time;durP1;ratioP1;P1;durP2;ratioP2;P2;SDS_P1;SDS_P2;PMS_P1;PMS_P2;Temp;Humidity;BMP_temperature;BMP_pressure;BME280_temperature;BME280_humidity;BME280_pressure;Samples;Min_cycle;Max_cycle;Signal;HPM_P1;HPM_P2
2023/01/30 00:01:39;;;;;;;21.40;17.40;;;;;;;;;;5013094;28;20213;-66
2023/01/30 00:04:04;;;;;;;21.40;17.27;;;;;;;;;;5013343;28;20291;-65
2023/01/30 00:06:29;;;;;;;22.00;18.87;;;;;;;;;;5013743;28;20212;-66
2023/01/30 00:08:55;;;;;;;23.37;19.00;;;;;;;;;;5012494;28;20248;-66
2023/01/30 00:11:20;;;;;;;24.47;18.10;;;;;;;;;;5012205;28;20658;-66
2023/01/30 00:13:46;;;;;;;21.93;16.97;;;;;;;;;;5017017;28;20270;-66
2023/01/30 00:16:11;;;;;;;22.67;17.67;;;;;;;;;;5014106;28;20216;-66
2023/01/30 00:18:37;;;;;;;21.30;18.13;;;;;;;;;;5013231;28;20244;-66
2023/01/30 00:21:03;;;;;;;22.60;18.33;;;;;;;;;;5013043;28;20216;-66
2023/01/30 00:23:28;;;;;;;21.00;17.70;;;;;;;;;;5012566;28;20200;-66
2023/01/30 00:25:54;;;;;;;21.57;17.87;;;;;;;;;;5013494;28;20308;-66
2023/01/30 00:28:19;;;;;;;20.43;17.87;;;;;;;;;;5012359;28;20259;-66
2023/01/30 00:30:46;;;;;;;21.13;17.27;;;;;;;;;;5000364;28;20225;-66
2023/01/30 00:33:12;;;;;;;21.83;17.93;;;;;;;;;;4983953;28;20245;-66
2023/01/30 00:35:41;;;;;;;23.10;19.03;;;;;;;;;;4984067;28;20309;-66
2023/01/30 00:38:06;;;;;;;24.47;17.97;;;;;;;;;;4989558;28;20220;-66
2023/01/30 00:40:31;;;;;;;23.43;18.27;;;;;;;;;;5003568;28;20206;-66
2023/01/30 00:48:25;;;;;;;24.40;19.30;;;;;;;;;;5004157;28;20214;-66
2023/01/30 00:50:50;;;;;;;22.73;17.10;;;;;;;;;;4996926;28;20208;-66
2023/01/30 00:53:16;;;;;;;22.60;18.20;;;;;;;;;;5002750;28;20216;-66
2023/01/30 00:55:42;;;;;;;23.40;18.53;;;;;;;;;;5003353;28;20216;-66
2023/01/30 00:58:07;;;;;;;24.90;19.77;;;;;;;;;;5019562;28;20725;-66
2023/01/30 01:00:33;;;;;;;22.43;18.63;;;;;;;;;;5015703;28;20212;-66
2023/01/30 01:02:58;;;;;;;24.63;19.00;;;;;;;;;;5022621;28;20218;-66
2023/01/30 01:05:23;;;;;;;24.67;18.47;;;;;;;;;;5012066;28;20208;-67
2023/01/30 01:07:48;;;;;;;20.93;17.13;;;;;;;;;;4996012;28;20251;-66
2023/01/30 01:10:15;;;;;;;23.60;18.97;;;;;;;;;;4994504;28;20240;-66
2023/01/30 01:12:43;;;;;;;23.07;18.77;;;;;;;;;;4994529;28;20208;-66
2023/01/30 01:15:09;;;;;;;23.93;18.57;;;;;;;;;;5002321;28;20631;-66
2023/01/30 01:17:34;;;;;;;22.73;18.30;;;;;;;;;;5003145;28;20235;-66
2023/01/30 01:19:59;;;;;;;25.53;18.80;;;;;;;;;;5002666;28;20232;-66
2023/01/30 01:22:24;;;;;;;21.30;17.50;;;;;;;;;;5007514;28;20323;-66
2023/01/30 01:24:50;;;;;;;25.07;17.93;;;;;;;;;;5009658;28;20655;-66
2023/01/30 01:27:15;;;;;;;22.42;17.88;;;;;;;;;;5008318;28;20254;-66
2023/01/30 01:29:40;;;;;;;20.63;17.17;;;;;;;;;;5004408;28;20242;-66
2023/01/30 01:32:06;;;;;;;21.93;18.77;;;;;;;;;;4997224;28;20266;-65
2023/01/30 01:34:31;;;;;;;25.90;18.47;;;;;;;;;;5001526;28;20266;-66
2023/01/30 01:36:56;;;;;;;25.80;18.27;;;;;;;;;;5005793;28;20589;-66
2023/01/30 01:39:22;;;;;;;19.67;16.90;;;;;;;;;;5008500;28;20224;-66
2023/01/30 01:41:47;;;;;;;23.43;18.53;;;;;;;;;;5009400;28;20208;-66
2023/01/30 01:44:12;;;;;;;23.67;18.60;;;;;;;;;;5008683;28;20220;-66
2023/01/30 01:46:40;;;;;;;20.93;17.77;;;;;;;;;;5008450;28;20212;-66
2023/01/30 01:49:07;;;;;;;23.27;18.47;;;;;;;;;;5008991;28;20213;-66
2023/01/30 01:51:34;;;;;;;22.87;17.77;;;;;;;;;;4989696;28;20310;-66
2023/01/30 01:54:02;;;;;;;21.57;18.27;;;;;;;;;;4983418;28;20294;-66
2023/01/30 01:56:27;;;;;;;23.80;18.30;;;;;;;;;;5019737;28;20226;-66
2023/01/30 01:58:54;;;;;;;23.43;18.33;;;;;;;;;;5004835;28;20223;-66
2023/01/30 02:01:20;;;;;;;21.93;18.63;;;;;;;;;;5027239;28;20224;-66
2023/01/30 02:03:46;;;;;;;21.77;18.30;;;;;;;;;;5028254;28;20226;-66
2023/01/30 02:06:11;;;;;;;28.07;18.93;;;;;;;;;;5023379;28;20204;-65
2023/01/30 02:08:37;;;;;;;22.87;18.17;;;;;;;;;;4990581;28;20223;-66
2023/01/30 02:11:05;;;;;;;26.87;16.90;;;;;;;;;;4991302;28;20227;-66
2023/01/30 02:13:31;;;;;;;22.57;17.30;;;;;;;;;;5026825;28;20748;-66
2023/01/30 02:15:57;;;;;;;20.87;16.03;;;;;;;;;;5000255;28;20281;-67
2023/01/30 02:18:22;;;;;;;20.03;16.03;;;;;;;;;;5000111;28;20228;-67
2023/01/30 02:21:06;;;;;;;21.77;17.03;;;;;;;;;;5000985;28;20235;-67
2023/01/30 02:23:42;;;;;;;22.57;17.23;;;;;;;;;;5027010;28;20204;-68
2023/01/30 02:26:18;;;;;;;21.70;16.90;;;;;;;;;;5010407;28;20223;-67
2023/01/30 02:28:44;;;;;;;20.83;16.03;;;;;;;;;;5027530;28;20987;-68
2023/01/30 02:31:27;;;;;;;19.27;16.57;;;;;;;;;;5008327;28;20251;-68
2023/01/30 02:33:53;;;;;;;16.83;14.63;;;;;;;;;;5017954;28;20243;-69
2023/01/30 02:36:23;;;;;;;17.63;14.77;;;;;;;;;;5003812;28;20220;-69
2023/01/30 02:38:51;;;;;;;18.80;15.30;;;;;;;;;;4998034;28;20216;-69
2023/01/30 02:41:20;;;;;;;17.13;14.57;;;;;;;;;;4996760;28;20220;-70
2023/01/30 02:43:53;;;;;;;19.87;14.97;;;;;;;;;;5001695;28;20218;-70
2023/01/30 02:46:21;;;;;;;20.40;15.07;;;;;;;;;;5010496;28;20213;-69
2023/01/30 02:48:51;;;;;;;18.30;13.33;;;;;;;;;;5009985;28;20235;-69
2023/01/30 02:51:17;;;;;;;15.63;12.77;;;;;;;;;;4993139;28;20236;-69
2023/01/30 02:53:42;;;;;;;17.20;13.10;;;;;;;;;;4997277;28;20336;-69
2023/01/30 02:56:07;;;;;;;16.43;12.83;;;;;;;;;;5014630;28;20342;-68
2023/01/30 02:58:36;;;;;;;16.13;12.70;;;;;;;;;;5014207;28;20709;-68
2023/01/30 03:01:02;;;;;;;17.17;12.33;;;;;;;;;;4996660;28;20587;-68
2023/01/30 03:03:31;;;;;;;14.63;11.40;;;;;;;;;;5014561;28;20212;-68
2023/01/30 03:06:05;;;;;;;14.07;11.17;;;;;;;;;;4994811;28;20220;-68
2023/01/30 03:08:31;;;;;;;14.67;10.83;;;;;;;;;;4977193;28;20231;-68
2023/01/30 03:10:58;;;;;;;14.17;10.27;;;;;;;;;;4977174;28;20209;-68
2023/01/30 03:13:39;;;;;;;14.07;9.53;;;;;;;;;;4978182;28;20213;-68
2023/01/30 03:16:13;;;;;;;11.20;8.73;;;;;;;;;;5013791;28;20213;-68
2023/01/30 03:18:40;;;;;;;11.43;7.77;;;;;;;;;;4996330;28;20294;-68
2023/01/30 03:21:06;;;;;;;9.60;7.30;;;;;;;;;;5013967;28;20212;-68
2023/01/30 03:23:31;;;;;;;9.77;7.50;;;;;;;;;;5014449;28;20254;-69
2023/01/30 03:25:56;;;;;;;9.83;7.57;;;;;;;;;;5013775;28;20245;-69
2023/01/30 03:28:22;;;;;;;9.10;6.60;;;;;;;;;;4996373;28;20209;-68
2023/01/30 03:30:47;;;;;;;9.73;6.87;;;;;;;;;;4986573;28;20209;-69
2023/01/30 03:33:12;;;;;;;9.17;6.40;;;;;;;;;;5011886;28;20213;-68
2023/01/30 03:35:37;;;;;;;10.67;7.13;;;;;;;;;;4994505;28;20279;-70
2023/01/30 03:38:03;;;;;;;11.07;6.53;;;;;;;;;;4993967;28;20240;-69
2023/01/30 03:40:28;;;;;;;8.63;6.47;;;;;;;;;;4976555;28;20295;-70
2023/01/30 03:42:53;;;;;;;9.00;6.27;;;;;;;;;;4994516;28;20272;-69
2023/01/30 03:45:19;;;;;;;8.23;5.83;;;;;;;;;;5006243;28;20213;-70
2023/01/30 03:47:44;;;;;;;9.97;5.80;;;;;;;;;;5011130;28;20671;-71
2023/01/30 03:50:09;;;;;;;8.53;5.40;;;;;;;;;;5004312;28;20201;-71
2023/01/30 03:52:35;;;;;;;8.93;5.63;;;;;;;;;;5004950;28;20209;-70
2023/01/30 03:55:00;;;;;;;8.73;5.57;;;;;;;;;;5013944;28;20747;-69
2023/01/30 03:57:25;;;;;;;8.60;5.70;;;;;;;;;;5024982;28;20224;-69
2023/01/30 03:59:51;;;;;;;7.40;5.53;;;;;;;;;;5032579;28;20207;-69
2023/01/30 04:02:21;;;;;;;8.73;4.93;;;;;;;;;;5033005;28;20204;-68
2023/01/30 04:04:46;;;;;;;7.57;5.27;;;;;;;;;;5033273;28;20291;-69
2023/01/30 04:07:11;;;;;;;8.57;4.70;;;;;;;;;;5019451;28;20303;-66
2023/01/30 04:09:37;;;;;;;8.70;4.60;;;;;;;;;;5006986;28;20303;-67
2023/01/30 04:12:02;;;;;;;6.97;4.80;;;;;;;;;;5003226;28;20212;-66
2023/01/30 04:14:27;;;;;;;8.23;4.47;;;;;;;;;;5003359;28;20219;-67
2023/01/30 04:16:53;;;;;;;7.43;4.40;;;;;;;;;;5003580;28;20204;-67
2023/01/30 04:19:18;;;;;;;7.70;4.53;;;;;;;;;;5002997;28;20228;-66
2023/01/30 04:21:43;;;;;;;8.93;4.60;;;;;;;;;;5003021;28;20648;-66
2023/01/30 04:24:08;;;;;;;11.00;4.93;;;;;;;;;;5001614;28;20222;-66
2023/01/30 04:26:34;;;;;;;7.23;4.37;;;;;;;;;;4992353;28;20715;-66
2023/01/30 04:28:59;;;;;;;9.43;4.67;;;;;;;;;;4995074;28;20244;-66
2023/01/30 04:31:24;;;;;;;11.15;4.80;;;;;;;;;;4996164;28;20223;-67
2023/01/30 04:33:50;;;;;;;7.93;4.60;;;;;;;;;;5003645;28;20355;-66
2023/01/30 04:36:15;;;;;;;9.10;4.50;;;;;;;;;;5002032;28;20390;-66
2023/01/30 04:38:40;;;;;;;11.07;4.77;;;;;;;;;;5003490;28;20229;-66
2023/01/30 04:41:06;;;;;;;10.63;5.33;;;;;;;;;;5002347;28;20224;-66
2023/01/30 04:43:31;;;;;;;10.40;4.90;;;;;;;;;;5002632;28;20224;-66
2023/01/30 04:45:56;;;;;;;11.93;5.30;;;;;;;;;;5003144;28;20239;-66
2023/01/30 04:48:22;;;;;;;10.20;4.87;;;;;;;;;;4979160;28;20216;-66
2023/01/30 04:50:48;;;;;;;10.20;5.03;;;;;;;;;;4993971;28;20216;-66
2023/01/30 04:53:13;;;;;;;13.37;5.20;;;;;;;;;;4994985;28;20254;-66
2023/01/30 04:55:38;;;;;;;9.43;5.03;;;;;;;;;;5001133;28;20209;-67
2023/01/30 04:58:04;;;;;;;11.27;5.07;;;;;;;;;;5002096;28;20281;-68
2023/01/30 05:00:29;;;;;;;10.53;4.60;;;;;;;;;;5003131;28;21012;-69
2023/01/30 05:02:54;;;;;;;7.97;4.57;;;;;;;;;;5002812;28;20215;-69
2023/01/30 05:05:21;;;;;;;10.00;4.70;;;;;;;;;;5002134;28;20855;-68
2023/01/30 05:07:46;;;;;;;10.67;4.07;;;;;;;;;;5003250;28;20212;-69
2023/01/30 05:10:11;;;;;;;9.07;3.97;;;;;;;;;;4997444;28;20661;-67
2023/01/30 05:12:36;;;;;;;9.45;4.00;;;;;;;;;;4994840;28;20212;-68
2023/01/30 05:15:02;;;;;;;8.63;3.78;;;;;;;;;;4995019;28;20227;-67
2023/01/30 05:17:27;;;;;;;7.87;3.97;;;;;;;;;;4997778;28;20235;-68
2023/01/30 05:19:52;;;;;;;8.67;3.77;;;;;;;;;;5002858;28;20247;-67
2023/01/30 05:22:18;;;;;;;9.23;3.80;;;;;;;;;;5002386;28;20331;-67
2023/01/30 05:24:43;;;;;;;10.10;3.40;;;;;;;;;;5002583;28;20205;-67
2023/01/30 05:27:08;;;;;;;8.20;3.40;;;;;;;;;;5001940;28;20624;-67
2023/01/30 05:29:34;;;;;;;8.80;3.10;;;;;;;;;;5003256;28;20241;-67
2023/01/30 05:31:59;;;;;;;9.83;3.30;;;;;;;;;;5001152;28;20251;-67
2023/01/30 05:34:24;;;;;;;9.77;3.40;;;;;;;;;;4994493;28;20307;-67
2023/01/30 05:36:49;;;;;;;6.13;2.85;;;;;;;;;;4994715;28;20641;-67
2023/01/30 05:39:15;;;;;;;10.10;2.90;;;;;;;;;;5012114;28;20500;-67
2023/01/30 05:41:40;;;;;;;9.27;2.97;;;;;;;;;;5021962;28;20294;-67
2023/01/30 05:44:05;;;;;;;7.47;2.63;;;;;;;;;;5021692;28;20504;-66
2023/01/30 05:46:31;;;;;;;8.57;2.70;;;;;;;;;;5011037;28;20212;-67
2023/01/30 05:48:56;;;;;;;8.63;2.40;;;;;;;;;;5002412;28;20271;-67
2023/01/30 05:51:22;;;;;;;9.10;2.53;;;;;;;;;;5002180;28;20306;-67
2023/01/30 05:53:47;;;;;;;8.33;2.53;;;;;;;;;;5001860;28;20232;-66
2023/01/30 05:56:12;;;;;;;8.27;2.40;;;;;;;;;;4995742;28;20242;-66
2023/01/30 05:58:38;;;;;;;8.50;2.40;;;;;;;;;;4993969;28;20674;-67
2023/01/30 06:01:04;;;;;;;9.80;2.67;;;;;;;;;;4993750;28;20225;-67
2023/01/30 06:03:29;;;;;;;9.23;2.60;;;;;;;;;;5000877;28;20213;-69
2023/01/30 06:05:55;;;;;;;7.70;2.10;;;;;;;;;;5015866;28;20215;-66
2023/01/30 06:08:20;;;;;;;9.67;2.30;;;;;;;;;;5002514;28;20231;-67
2023/01/30 06:10:45;;;;;;;9.00;2.53;;;;;;;;;;5005810;28;20272;-66
2023/01/30 06:13:11;;;;;;;7.80;2.40;;;;;;;;;;5005487;28;20232;-66
2023/01/30 06:15:36;;;;;;;8.77;2.30;;;;;;;;;;5005246;28;20563;-66
2023/01/30 06:18:01;;;;;;;6.23;2.10;;;;;;;;;;5001672;28;20236;-66
2023/01/30 06:20:26;;;;;;;7.77;2.30;;;;;;;;;;4980007;28;20228;-68
2023/01/30 06:22:52;;;;;;;10.63;2.00;;;;;;;;;;4997779;28;20980;-66
2023/01/30 06:25:17;;;;;;;10.38;2.40;;;;;;;;;;5000973;28;20255;-66
2023/01/30 06:27:44;;;;;;;10.07;2.50;;;;;;;;;;5004796;28;20205;-67
2023/01/30 06:30:09;;;;;;;6.53;2.03;;;;;;;;;;5005608;28;20220;-66
2023/01/30 06:32:35;;;;;;;8.02;2.30;;;;;;;;;;5005595;28;20223;-66
2023/01/30 06:35:00;;;;;;;8.40;2.37;;;;;;;;;;5004986;28;20220;-65
2023/01/30 06:37:25;;;;;;;9.40;2.23;;;;;;;;;;5005576;28;20551;-67
2023/01/30 06:39:50;;;;;;;6.55;1.90;;;;;;;;;;5004456;28;20604;-66
2023/01/30 06:42:16;;;;;;;8.90;2.10;;;;;;;;;;4993381;28;20216;-66
2023/01/30 06:44:41;;;;;;;7.07;2.30;;;;;;;;;;4997539;28;20351;-67
2023/01/30 06:47:06;;;;;;;8.83;2.30;;;;;;;;;;4998315;28;20754;-66
2023/01/30 06:49:32;;;;;;;7.27;2.13;;;;;;;;;;5005229;28;20579;-67
2023/01/30 06:51:57;;;;;;;10.60;2.30;;;;;;;;;;5005221;28;20613;-67
2023/01/30 06:54:22;;;;;;;12.43;2.90;;;;;;;;;;5004720;28;20251;-67
2023/01/30 06:56:48;;;;;;;8.00;2.25;;;;;;;;;;5004159;28;20307;-67
2023/01/30 06:59:13;;;;;;;8.57;2.50;;;;;;;;;;5005776;28;20621;-66
2023/01/30 07:01:38;;;;;;;8.83;2.23;;;;;;;;;;5006961;28;20216;-67
2023/01/30 07:04:04;;;;;;;12.00;3.10;;;;;;;;;;4998796;28;20271;-66
2023/01/30 07:06:29;;;;;;;12.97;2.80;;;;;;;;;;4997777;28;20214;-67
2023/01/30 07:08:57;;;;;;;14.83;5.60;;;;;;;;;;5025477;28;20243;-66
2023/01/30 07:11:22;;;;;;;11.93;4.97;;;;;;;;;;5013108;28;20274;-66
2023/01/30 07:13:49;;;;;;;12.60;3.65;;;;;;;;;;5033032;28;20481;-68
2023/01/30 07:16:14;;;;;;;7.23;2.30;;;;;;;;;;5033300;28;20706;-67
2023/01/30 07:18:39;;;;;;;12.07;3.00;;;;;;;;;;5032765;28;20216;-70
2023/01/30 07:21:05;;;;;;;8.73;2.63;;;;;;;;;;5033591;28;20230;-67
2023/01/30 07:23:30;;;;;;;13.55;7.70;;;;;;;;;;5032882;28;20908;-67
2023/01/30 07:25:55;;;;;;;11.63;2.97;;;;;;;;;;5033179;28;20251;-67
2023/01/30 07:28:20;;;;;;;11.33;2.70;;;;;;;;;;5033421;28;20236;-68
2023/01/30 07:30:46;;;;;;;9.80;2.70;;;;;;;;;;5033273;28;20235;-67
2023/01/30 07:33:11;;;;;;;12.90;2.83;;;;;;;;;;5033279;28;20216;-67
2023/01/30 07:35:36;;;;;;;11.13;2.67;;;;;;;;;;5034057;28;20218;-67
2023/01/30 07:38:02;;;;;;;11.50;2.87;;;;;;;;;;5014738;28;20230;-68
2023/01/30 07:40:27;;;;;;;13.17;2.83;;;;;;;;;;5034060;28;20291;-66
2023/01/30 07:43:00;;;;;;;11.17;2.57;;;;;;;;;;5033542;28;20215;-66
2023/01/30 07:45:27;;;;;;;12.20;2.63;;;;;;;;;;5032550;28;20207;-68
2023/01/30 07:47:52;;;;;;;10.27;2.77;;;;;;;;;;5033814;28;20281;-71
2023/01/30 07:50:17;;;;;;;12.40;2.83;;;;;;;;;;5029934;28;20730;-71
2023/01/30 07:52:43;;;;;;;8.80;2.80;;;;;;;;;;5007647;28;20205;-70
2023/01/30 07:55:08;;;;;;;12.43;3.13;;;;;;;;;;4994969;28;20204;-70
2023/01/30 07:57:34;;;;;;;9.93;3.00;;;;;;;;;;5003977;28;20221;-67
2023/01/30 07:59:59;;;;;;;12.57;3.10;;;;;;;;;;5001638;28;20205;-68
2023/01/30 08:02:24;;;;;;;13.27;3.57;;;;;;;;;;5001434;28;20668;-67
2023/01/30 08:04:50;;;;;;;13.13;3.30;;;;;;;;;;4999222;28;20217;-70
2023/01/30 08:07:15;;;;;;;11.67;2.80;;;;;;;;;;5005998;28;20259;-69
2023/01/30 08:09:40;;;;;;;12.30;3.10;;;;;;;;;;5018342;28;20270;-67
2023/01/30 08:12:06;;;;;;;12.50;3.33;;;;;;;;;;5029206;28;20307;-66
2023/01/30 08:14:31;;;;;;;16.40;4.07;;;;;;;;;;5017171;28;20216;-65
2023/01/30 08:16:56;;;;;;;15.10;3.90;;;;;;;;;;5018726;28;20219;-66
2023/01/30 08:19:22;;;;;;;13.47;3.20;;;;;;;;;;5029457;28;20230;-66
2023/01/30 08:21:47;;;;;;;12.90;3.00;;;;;;;;;;5029144;28;20208;-66
2023/01/30 08:24:12;;;;;;;11.90;3.30;;;;;;;;;;5032402;28;20211;-66
2023/01/30 08:26:37;;;;;;;13.13;3.10;;;;;;;;;;5026813;28;20706;-67
2023/01/30 08:29:03;;;;;;;12.15;3.25;;;;;;;;;;5016943;28;20213;-66
2023/01/30 08:31:28;;;;;;;13.97;3.57;;;;;;;;;;4994526;28;20220;-66
2023/01/30 08:33:53;;;;;;;11.80;3.03;;;;;;;;;;5013202;28;20209;-69
2023/01/30 08:36:19;;;;;;;14.80;3.17;;;;;;;;;;5011872;28;20271;-70
2023/01/30 08:38:44;;;;;;;11.13;2.83;;;;;;;;;;5012780;28;20290;-68
2023/01/30 08:41:09;;;;;;;11.98;3.05;;;;;;;;;;5011895;28;20209;-71
2023/01/30 08:43:35;;;;;;;12.50;2.60;;;;;;;;;;5013086;28;20228;-70
2023/01/30 08:46:00;;;;;;;10.53;2.70;;;;;;;;;;5012433;28;20220;-71
2023/01/30 08:48:25;;;;;;;14.52;3.63;;;;;;;;;;4992388;28;20205;-71
2023/01/30 08:50:52;;;;;;;13.37;3.00;;;;;;;;;;5005333;28;20220;-70
2023/01/30 08:53:17;;;;;;;8.98;2.50;;;;;;;;;;5012328;28;20212;-69
2023/01/30 08:55:43;;;;;;;11.33;2.60;;;;;;;;;;5012186;28;20208;-69
2023/01/30 08:58:09;;;;;;;10.87;2.80;;;;;;;;;;5002918;28;20229;-68
2023/01/30 09:00:34;;;;;;;11.17;2.67;;;;;;;;;;4992885;28;20249;-68
2023/01/30 09:03:00;;;;;;;13.87;3.13;;;;;;;;;;4991966;28;20221;-68
2023/01/30 09:05:26;;;;;;;13.97;3.00;;;;;;;;;;5012499;28;20295;-68
2023/01/30 09:07:51;;;;;;;12.40;3.10;;;;;;;;;;5020050;28;20635;-68
2023/01/30 09:10:16;;;;;;;14.10;3.65;;;;;;;;;;4994172;28;20350;-68
2023/01/30 09:12:42;;;;;;;10.47;2.83;;;;;;;;;;4992624;28;20830;-68
2023/01/30 09:15:07;;;;;;;17.47;3.20;;;;;;;;;;5006844;28;20208;-67
2023/01/30 09:17:33;;;;;;;12.20;3.20;;;;;;;;;;5011540;28;20303;-68
2023/01/30 09:19:58;;;;;;;13.67;5.47;;;;;;;;;;5010384;28;20372;-68
2023/01/30 09:22:23;;;;;;;10.73;3.53;;;;;;;;;;4992406;28;20213;-68
2023/01/30 09:24:49;;;;;;;19.00;5.93;;;;;;;;;;4991815;28;20236;-68
2023/01/30 09:27:14;;;;;;;18.63;6.60;;;;;;;;;;4992432;28;20216;-68
2023/01/30 09:29:39;;;;;;;12.23;3.35;;;;;;;;;;4992656;28;20209;-70
2023/01/30 09:32:05;;;;;;;22.13;6.40;;;;;;;;;;4991252;28;20624;-67
2023/01/30 09:34:30;;;;;;;17.10;6.43;;;;;;;;;;4995332;28;20614;-68
2023/01/30 09:36:59;;;;;;;21.45;8.27;;;;;;;;;;5002788;28;20220;-68
2023/01/30 09:39:24;;;;;;;14.33;5.40;;;;;;;;;;5004375;28;20597;-68
2023/01/30 09:41:56;;;;;;;15.57;4.57;;;;;;;;;;5005928;28;20204;-68
2023/01/30 09:44:29;;;;;;;16.13;6.77;;;;;;;;;;4991130;28;20221;-69
2023/01/30 09:47:02;;;;;;;26.20;13.90;;;;;;;;;;5008217;28;20224;-68
2023/01/30 09:49:50;;;;;;;17.87;8.23;;;;;;;;;;4998142;28;20204;-70
2023/01/30 09:52:30;;;;;;;18.87;8.13;;;;;;;;;;4996283;28;20258;-70
2023/01/30 09:55:00;;;;;;;10.83;3.37;;;;;;;;;;5016037;28;20215;-70
2023/01/30 09:57:25;;;;;;;13.27;3.65;;;;;;;;;;4998437;28;20220;-71
2023/01/30 09:59:55;;;;;;;9.90;2.63;;;;;;;;;;5015373;28;20614;-71
2023/01/30 10:02:22;;;;;;;9.37;2.60;;;;;;;;;;5015157;28;20231;-74
2023/01/30 10:04:48;;;;;;;12.17;3.23;;;;;;;;;;5015889;28;20224;-66
2023/01/30 10:07:18;;;;;;;10.88;3.00;;;;;;;;;;5027802;28;20299;-65
2023/01/30 10:09:48;;;;;;;12.07;3.30;;;;;;;;;;5035429;28;20323;-70
2023/01/30 10:12:19;;;;;;;10.23;2.97;;;;;;;;;;5017516;28;20284;-70
2023/01/30 10:14:50;;;;;;;11.47;3.20;;;;;;;;;;5016458;28;20219;-68
2023/01/30 10:17:21;;;;;;;12.20;2.85;;;;;;;;;;5016047;28;20220;-67
2023/01/30 10:19:47;;;;;;;14.27;2.83;;;;;;;;;;5010575;28;20228;-69
2023/01/30 10:22:18;;;;;;;15.27;3.47;;;;;;;;;;5014984;28;20220;-69
2023/01/30 10:24:55;;;;;;;12.23;3.33;;;;;;;;;;4998047;28;20303;-67
2023/01/30 10:27:20;;;;;;;11.43;2.77;;;;;;;;;;4996788;28;20212;-68
2023/01/30 10:29:47;;;;;;;9.60;2.97;;;;;;;;;;5015407;28;20270;-66
2023/01/30 10:32:24;;;;;;;12.13;3.00;;;;;;;;;;4996850;28;20217;-66
2023/01/30 10:34:50;;;;;;;15.25;3.22;;;;;;;;;;5014619;28;20314;-65
2023/01/30 10:37:16;;;;;;;17.33;4.43;;;;;;;;;;5014838;28;20220;-67
2023/01/30 10:39:48;;;;;;;11.63;3.20;;;;;;;;;;5015314;28;20288;-67
2023/01/30 10:42:14;;;;;;;9.53;2.57;;;;;;;;;;5013855;28;20305;-66
2023/01/30 10:44:41;;;;;;;14.23;3.23;;;;;;;;;;4997589;28;20351;-65
2023/01/30 10:47:11;;;;;;;10.90;2.73;;;;;;;;;;5014300;28;20212;-68
2023/01/30 10:49:39;;;;;;;9.03;3.00;;;;;;;;;;5014453;28;20294;-65
2023/01/30 10:52:25;;;;;;;12.53;2.63;;;;;;;;;;4997044;28;20220;-64
2023/01/30 10:54:54;;;;;;;17.13;3.37;;;;;;;;;;5013454;28;20255;-66
2023/01/30 10:57:34;;;;;;;15.53;5.90;;;;;;;;;;4996689;28;20295;-67
2023/01/30 11:00:03;;;;;;;12.00;3.37;;;;;;;;;;5014559;28;20221;-67
2023/01/30 11:02:32;;;;;;;13.90;2.97;;;;;;;;;;5033368;28;20659;-67
2023/01/30 11:04:59;;;;;;;12.50;3.13;;;;;;;;;;5034671;28;20354;-67
2023/01/30 11:07:25;;;;;;;11.30;2.97;;;;;;;;;;5001723;28;20614;-67
2023/01/30 11:09:50;;;;;;;10.17;2.60;;;;;;;;;;5004347;28;20228;-69
2023/01/30 11:12:15;;;;;;;12.63;3.47;;;;;;;;;;5014182;28;20223;-66
2023/01/30 11:14:52;;;;;;;11.95;3.30;;;;;;;;;;5026045;28;20666;-67
2023/01/30 11:17:17;;;;;;;10.70;2.90;;;;;;;;;;5033092;28;20282;-65
2023/01/30 11:19:42;;;;;;;13.00;2.87;;;;;;;;;;5029100;28;20265;-65
2023/01/30 11:22:10;;;;;;;12.10;2.60;;;;;;;;;;5013967;28;20209;-66
2023/01/30 11:24:41;;;;;;;12.82;2.67;;;;;;;;;;5012689;28;20212;-67
2023/01/30 11:27:19;;;;;;;13.75;3.58;;;;;;;;;;5013789;28;20224;-66
2023/01/30 11:29:45;;;;;;;11.85;3.00;;;;;;;;;;5014055;28;20651;-65
2023/01/30 11:32:11;;;;;;;11.47;2.60;;;;;;;;;;5013066;28;20216;-65
2023/01/30 11:34:36;;;;;;;11.87;2.60;;;;;;;;;;5014263;28;20223;-65
2023/01/30 11:37:11;;;;;;;10.23;2.57;;;;;;;;;;5011854;28;20220;-65
2023/01/30 11:39:37;;;;;;;9.63;2.60;;;;;;;;;;5014533;28;20224;-65
2023/01/30 11:42:03;;;;;;;12.63;2.85;;;;;;;;;;5012317;28;20259;-65
2023/01/30 11:44:30;;;;;;;13.18;3.08;;;;;;;;;;5013444;28;20215;-66
2023/01/30 11:46:57;;;;;;;11.83;2.60;;;;;;;;;;5013904;28;20222;-66
2023/01/30 11:49:23;;;;;;;11.07;2.65;;;;;;;;;;5013394;28;20216;-65
2023/01/30 11:51:51;;;;;;;12.13;3.08;;;;;;;;;;5031917;28;20207;-65
2023/01/30 11:54:18;;;;;;;11.50;3.00;;;;;;;;;;5022515;28;20343;-65
2023/01/30 11:56:48;;;;;;;10.13;2.55;;;;;;;;;;5013859;28;20205;-66
2023/01/30 11:59:25;;;;;;;12.02;2.72;;;;;;;;;;5013072;28;20298;-66
2023/01/30 12:01:50;;;;;;;10.00;2.72;;;;;;;;;;5013646;28;20669;-68
2023/01/30 12:04:15;;;;;;;15.45;3.53;;;;;;;;;;5011808;28;20295;-67
2023/01/30 12:06:41;;;;;;;11.20;3.00;;;;;;;;;;5011532;28;20217;-64
2023/01/30 12:09:28;;;;;;;12.23;3.22;;;;;;;;;;5013339;28;20263;-65
2023/01/30 12:11:53;;;;;;;11.90;3.00;;;;;;;;;;5013532;28;20216;-65
2023/01/30 12:14:37;;;;;;;13.40;3.20;;;;;;;;;;5020265;28;20208;-65
2023/01/30 12:17:06;;;;;;;10.90;3.30;;;;;;;;;;5032714;28;20212;-65
2023/01/30 12:19:34;;;;;;;24.13;7.70;;;;;;;;;;5030190;28;20243;-66
2023/01/30 12:22:03;;;;;;;14.77;5.80;;;;;;;;;;4996140;28;20212;-66
2023/01/30 12:24:31;;;;;;;14.63;4.70;;;;;;;;;;5001228;28;20276;-65
2023/01/30 12:27:02;;;;;;;10.30;3.05;;;;;;;;;;4991180;28;20212;-66
2023/01/30 12:29:28;;;;;;;13.48;3.58;;;;;;;;;;5011497;28;20222;-66
2023/01/30 12:32:01;;;;;;;12.88;3.17;;;;;;;;;;4995843;28;20227;-66
2023/01/30 12:34:27;;;;;;;11.00;3.00;;;;;;;;;;4994612;28;20219;-65
2023/01/30 12:37:00;;;;;;;13.05;3.25;;;;;;;;;;5013157;28;20295;-67
2023/01/30 12:39:29;;;;;;;12.48;3.00;;;;;;;;;;5011637;28;20216;-66
2023/01/30 12:41:59;;;;;;;11.90;3.30;;;;;;;;;;5012179;28;20208;-65
2023/01/30 12:44:28;;;;;;;13.23;3.03;;;;;;;;;;5010855;28;20212;-66
2023/01/30 12:46:56;;;;;;;13.02;3.22;;;;;;;;;;5012921;28;20304;-66
2023/01/30 12:49:27;;;;;;;14.68;3.28;;;;;;;;;;5010649;28;20204;-65
2023/01/30 12:52:03;;;;;;;14.25;3.13;;;;;;;;;;5012724;28;20212;-65
2023/01/30 12:54:33;;;;;;;13.98;3.38;;;;;;;;;;4994523;28;20200;-65
2023/01/30 12:57:01;;;;;;;13.93;3.50;;;;;;;;;;4995332;28;20602;-64
2023/01/30 12:59:30;;;;;;;16.55;3.38;;;;;;;;;;5014239;28;20683;-66
2023/01/30 13:02:00;;;;;;;12.27;3.40;;;;;;;;;;5006224;28;20297;-65
2023/01/30 13:04:35;;;;;;;12.20;3.13;;;;;;;;;;5014535;28;20263;-65
2023/01/30 13:07:06;;;;;;;12.45;3.40;;;;;;;;;;5003513;28;20216;-65
2023/01/30 13:09:40;;;;;;;12.55;2.90;;;;;;;;;;4978090;28;20280;-65
2023/01/30 13:12:13;;;;;;;13.18;3.15;;;;;;;;;;4992709;28;20240;-64
2023/01/30 13:14:38;;;;;;;12.73;3.38;;;;;;;;;;5003152;28;20275;-64
2023/01/30 13:17:03;;;;;;;12.95;3.50;;;;;;;;;;4994400;28;20244;-64
2023/01/30 13:19:31;;;;;;;14.23;3.43;;;;;;;;;;4994664;28;20228;-64
2023/01/30 13:22:02;;;;;;;13.55;3.33;;;;;;;;;;4994645;28;20669;-64
2023/01/30 13:24:34;;;;;;;15.90;3.45;;;;;;;;;;5010417;28;20219;-64
2023/01/30 13:26:59;;;;;;;13.27;3.42;;;;;;;;;;5011452;28;20213;-64
2023/01/30 13:29:28;;;;;;;11.52;3.25;;;;;;;;;;5011406;28;20219;-66
2023/01/30 13:31:55;;;;;;;13.38;3.50;;;;;;;;;;5012338;28;20211;-66
2023/01/30 13:34:33;;;;;;;11.73;3.10;;;;;;;;;;5010926;28;20220;-66
2023/01/30 13:37:03;;;;;;;13.18;3.38;;;;;;;;;;5010474;28;20218;-66
2023/01/30 13:39:36;;;;;;;10.93;3.35;;;;;;;;;;5011013;28;20216;-67
2023/01/30 13:42:03;;;;;;;11.90;3.33;;;;;;;;;;5010871;28;20254;-65
2023/01/30 13:44:30;;;;;;;14.13;3.40;;;;;;;;;;5011205;28;20303;-67
2023/01/30 13:46:55;;;;;;;16.85;3.60;;;;;;;;;;5011154;28;20224;-66
2023/01/30 13:49:21;;;;;;;11.38;2.70;;;;;;;;;;5010782;28;20220;-67
2023/01/30 13:51:47;;;;;;;14.60;3.78;;;;;;;;;;5011394;28;20217;-68
2023/01/30 13:54:15;;;;;;;12.65;3.38;;;;;;;;;;5011867;28;20219;-67
2023/01/30 13:56:41;;;;;;;11.50;3.33;;;;;;;;;;5012440;28;20212;-67
2023/01/30 13:59:14;;;;;;;14.23;3.60;;;;;;;;;;5011009;28;20236;-67
2023/01/30 14:02:17;;;;;;;10.55;3.17;;;;;;;;;;5023862;28;20216;-66
2023/01/30 14:04:44;;;;;;;14.15;3.65;;;;;;;;;;5016869;28;20286;-65
2023/01/30 14:07:28;;;;;;;13.27;3.30;;;;;;;;;;5018838;28;20683;-65
2023/01/30 14:10:05;;;;;;;15.35;2.95;;;;;;;;;;5002722;28;20324;-65
2023/01/30 14:12:33;;;;;;;12.55;3.45;;;;;;;;;;4991584;28;20735;-66
2023/01/30 14:14:59;;;;;;;10.80;3.50;;;;;;;;;;5005728;28;20220;-65
2023/01/30 14:17:25;;;;;;;15.15;4.13;;;;;;;;;;4993971;28;20212;-68
2023/01/30 14:19:57;;;;;;;11.93;3.47;;;;;;;;;;4983468;28;20225;-68
2023/01/30 14:22:28;;;;;;;10.82;3.38;;;;;;;;;;4974571;28;20289;-68
2023/01/30 14:25:11;;;;;;;13.43;3.83;;;;;;;;;;4982398;28;20746;-68
2023/01/30 14:27:37;;;;;;;12.65;3.40;;;;;;;;;;5011017;28;20235;-68
2023/01/30 14:30:12;;;;;;;12.52;3.47;;;;;;;;;;5013183;28;20557;-68
2023/01/30 14:32:51;;;;;;;11.25;3.20;;;;;;;;;;4997847;28;20212;-71
2023/01/30 14:35:18;;;;;;;13.35;3.40;;;;;;;;;;5015345;28;20207;-66
2023/01/30 14:37:45;;;;;;;12.07;3.15;;;;;;;;;;5015429;28;20223;-66